sensor_id;sensor_type;location;lat;lon;timestamp;P1;durP1;ratioP1;P2;durP2;ratioP2
30948;SDS011;17637;51.984;21.208;2023-11-21T00:00:56;33.85;;;19.10;;
30948;SDS011;17637;51.984;21.208;2023-11-21T00:03:27;29.60;;;17.17;;
30948;SDS011;17637;51.984;21.208;2023-11-21T00:06:00;31.02;;;18.23;;
30948;SDS011;17637;51.984;21.208;2023-11-21T00:08:32;31.23;;;20.33;;
30948;SDS011;17637;51.984;21.208;2023-11-21T00:11:03;39.95;;;24.02;;
30948;SDS011;17637;51.984;21.208;2023-11-21T00:13:37;40.83;;;27.13;;
30948;SDS011;17637;51.984;21.208;2023-11-21T00:16:09;39.15;;;27.02;;
30948;SDS011;17637;51.984;21.208;2023-11-21T00:18:41;39.83;;;24.50;;
30948;SDS011;17637;51.984;21.208;2023-11-21T00:21:14;45.75;;;27.23;;
30948;SDS011;17637;51.984;21.208;2023-11-21T00:23:45;37.10;;;23.55;;
30948;SDS011;17637;51.984;21.208;2023-11-21T00:26:17;42.92;;;26.15;;
30948;SDS011;17637;51.984;21.208;2023-11-21T00:28:50;43.65;;;25.17;;
30948;SDS011;17637;51.984;21.208;2023-11-21T00:31:21;43.15;;;25.85;;
30948;SDS011;17637;51.984;21.208;2023-11-21T00:33:54;50.05;;;26.75;;
30948;SDS011;17637;51.984;21.208;2023-11-21T00:36:27;32.22;;;21.50;;
30948;SDS011;17637;51.984;21.208;2023-11-21T00:38:59;39.05;;;22.95;;
30948;SDS011;17637;51.984;21.208;2023-11-21T00:41:31;43.47;;;24.23;;
30948;SDS011;17637;51.984;21.208;2023-11-21T00:44:03;45.55;;;24.38;;
30948;SDS011;17637;51.984;21.208;2023-11-21T00:46:35;49.28;;;26.40;;
30948;SDS011;17637;51.984;21.208;2023-11-21T00:49:07;48.92;;;26.42;;
30948;SDS011;17637;51.984;21.208;2023-11-21T00:51:39;35.10;;;23.08;;
30948;SDS011;17637;51.984;21.208;2023-11-21T00:54:11;41.20;;;25.17;;
30948;SDS011;17637;51.984;21.208;2023-11-21T00:56:43;47.92;;;26.60;;
30948;SDS011;17637;51.984;21.208;2023-11-21T00:59:14;39.45;;;23.33;;
30948;SDS011;17637;51.984;21.208;2023-11-21T01:01:46;43.63;;;26.27;;
30948;SDS011;17637;51.984;21.208;2023-11-21T01:04:18;45.25;;;26.88;;
30948;SDS011;17637;51.984;21.208;2023-11-21T01:06:50;53.30;;;27.67;;
30948;SDS011;17637;51.984;21.208;2023-11-21T01:09:22;46.83;;;26.33;;
30948;SDS011;17637;51.984;21.208;2023-11-21T01:11:54;33.47;;;21.52;;
30948;SDS011;17637;51.984;21.208;2023-11-21T01:14:26;41.65;;;24.30;;
30948;SDS011;17637;51.984;21.208;2023-11-21T01:17:00;42.05;;;23.77;;
30948;SDS011;17637;51.984;21.208;2023-11-21T01:19:32;55.60;;;28.70;;
30948;SDS011;17637;51.984;21.208;2023-11-21T01:22:04;60.50;;;32.38;;
30948;SDS011;17637;51.984;21.208;2023-11-21T01:24:36;50.15;;;29.73;;
30948;SDS011;17637;51.984;21.208;2023-11-21T01:27:08;41.35;;;28.35;;
30948;SDS011;17637;51.984;21.208;2023-11-21T01:29:40;51.65;;;30.85;;
30948;SDS011;17637;51.984;21.208;2023-11-21T01:32:12;58.00;;;32.70;;
30948;SDS011;17637;51.984;21.208;2023-11-21T01:34:44;48.75;;;30.23;;
30948;SDS011;17637;51.984;21.208;2023-11-21T01:37:16;60.08;;;33.30;;
30948;SDS011;17637;51.984;21.208;2023-11-21T01:39:49;62.30;;;35.38;;
30948;SDS011;17637;51.984;21.208;2023-11-21T01:42:20;45.95;;;28.58;;
30948;SDS011;17637;51.984;21.208;2023-11-21T01:44:52;59.70;;;32.50;;
30948;SDS011;17637;51.984;21.208;2023-11-21T01:47:26;61.25;;;33.38;;
30948;SDS011;17637;51.984;21.208;2023-11-21T01:49:58;62.22;;;33.92;;
30948;SDS011;17637;51.984;21.208;2023-11-21T01:52:30;74.25;;;36.13;;
30948;SDS011;17637;51.984;21.208;2023-11-21T01:55:03;56.90;;;33.97;;
30948;SDS011;17637;51.984;21.208;2023-11-21T01:57:37;70.20;;;36.88;;
30948;SDS011;17637;51.984;21.208;2023-11-21T02:00:12;68.38;;;34.20;;
30948;SDS011;17637;51.984;21.208;2023-11-21T02:02:48;74.15;;;37.65;;
30948;SDS011;17637;51.984;21.208;2023-11-21T02:05:20;68.07;;;35.35;;
30948;SDS011;17637;51.984;21.208;2023-11-21T02:07:53;74.90;;;36.78;;
30948;SDS011;17637;51.984;21.208;2023-11-21T02:10:24;80.03;;;37.65;;
30948;SDS011;17637;51.984;21.208;2023-11-21T02:12:56;69.47;;;37.42;;
30948;SDS011;17637;51.984;21.208;2023-11-21T02:15:29;67.18;;;36.35;;
30948;SDS011;17637;51.984;21.208;2023-11-21T02:18:01;77.38;;;39.45;;
30948;SDS011;17637;51.984;21.208;2023-11-21T02:20:34;86.80;;;41.55;;
30948;SDS011;17637;51.984;21.208;2023-11-21T02:23:08;83.43;;;39.38;;
30948;SDS011;17637;51.984;21.208;2023-11-21T02:25:40;77.18;;;39.17;;
30948;SDS011;17637;51.984;21.208;2023-11-21T02:28:14;75.95;;;38.78;;
30948;SDS011;17637;51.984;21.208;2023-11-21T02:30:47;74.50;;;37.83;;
30948;SDS011;17637;51.984;21.208;2023-11-21T02:33:27;58.97;;;35.33;;
30948;SDS011;17637;51.984;21.208;2023-11-21T02:35:58;66.75;;;36.20;;
30948;SDS011;17637;51.984;21.208;2023-11-21T02:38:31;69.05;;;38.45;;
30948;SDS011;17637;51.984;21.208;2023-11-21T02:41:03;61.45;;;35.50;;
30948;SDS011;17637;51.984;21.208;2023-11-21T02:43:35;71.68;;;36.40;;
30948;SDS011;17637;51.984;21.208;2023-11-21T02:46:08;66.82;;;36.45;;
30948;SDS011;17637;51.984;21.208;2023-11-21T02:48:40;68.50;;;35.25;;
30948;SDS011;17637;51.984;21.208;2023-11-21T02:51:12;64.05;;;35.15;;
30948;SDS011;17637;51.984;21.208;2023-11-21T02:53:43;66.35;;;36.95;;
30948;SDS011;17637;51.984;21.208;2023-11-21T02:56:15;56.38;;;32.78;;
30948;SDS011;17637;51.984;21.208;2023-11-21T02:58:47;67.68;;;36.17;;
30948;SDS011;17637;51.984;21.208;2023-11-21T03:01:19;62.80;;;34.72;;
30948;SDS011;17637;51.984;21.208;2023-11-21T03:03:51;64.90;;;36.40;;
30948;SDS011;17637;51.984;21.208;2023-11-21T03:06:23;57.90;;;32.60;;
30948;SDS011;17637;51.984;21.208;2023-11-21T03:08:55;51.35;;;30.80;;
30948;SDS011;17637;51.984;21.208;2023-11-21T03:11:26;53.90;;;30.30;;
30948;SDS011;17637;51.984;21.208;2023-11-21T03:13:58;58.42;;;33.10;;
30948;SDS011;17637;51.984;21.208;2023-11-21T03:16:31;63.08;;;34.20;;
30948;SDS011;17637;51.984;21.208;2023-11-21T03:19:04;49.92;;;32.05;;
30948;SDS011;17637;51.984;21.208;2023-11-21T03:21:36;51.58;;;31.33;;
30948;SDS011;17637;51.984;21.208;2023-11-21T03:24:08;56.38;;;32.22;;
30948;SDS011;17637;51.984;21.208;2023-11-21T03:26:40;48.45;;;29.88;;
30948;SDS011;17637;51.984;21.208;2023-11-21T03:29:12;47.90;;;29.38;;
30948;SDS011;17637;51.984;21.208;2023-11-21T03:31:44;46.90;;;29.23;;
30948;SDS011;17637;51.984;21.208;2023-11-21T03:34:23;48.17;;;29.45;;
30948;SDS011;17637;51.984;21.208;2023-11-21T03:36:59;55.47;;;32.88;;
30948;SDS011;17637;51.984;21.208;2023-11-21T03:39:31;50.25;;;31.58;;
30948;SDS011;17637;51.984;21.208;2023-11-21T03:42:02;48.42;;;30.52;;
30948;SDS011;17637;51.984;21.208;2023-11-21T03:44:34;50.97;;;30.45;;
30948;SDS011;17637;51.984;21.208;2023-11-21T03:47:06;49.47;;;29.40;;
30948;SDS011;17637;51.984;21.208;2023-11-21T03:49:38;46.08;;;28.45;;
30948;SDS011;17637;51.984;21.208;2023-11-21T03:52:10;41.83;;;26.38;;
30948;SDS011;17637;51.984;21.208;2023-11-21T03:54:42;39.42;;;25.98;;
30948;SDS011;17637;51.984;21.208;2023-11-21T03:57:14;55.85;;;33.60;;
30948;SDS011;17637;51.984;21.208;2023-11-21T03:59:46;52.03;;;32.70;;
30948;SDS011;17637;51.984;21.208;2023-11-21T04:02:19;61.47;;;33.83;;
30948;SDS011;17637;51.984;21.208;2023-11-21T04:04:51;66.72;;;34.90;;
30948;SDS011;17637;51.984;21.208;2023-11-21T04:07:23;67.05;;;33.42;;
30948;SDS011;17637;51.984;21.208;2023-11-21T04:09:55;62.67;;;32.50;;
30948;SDS011;17637;51.984;21.208;2023-11-21T04:12:27;55.78;;;30.15;;
30948;SDS011;17637;51.984;21.208;2023-11-21T04:14:58;42.30;;;26.65;;
30948;SDS011;17637;51.984;21.208;2023-11-21T04:17:30;51.45;;;29.10;;
30948;SDS011;17637;51.984;21.208;2023-11-21T04:20:03;42.45;;;26.20;;
30948;SDS011;17637;51.984;21.208;2023-11-21T04:22:41;46.35;;;28.67;;
30948;SDS011;17637;51.984;21.208;2023-11-21T04:25:18;55.40;;;29.63;;
30948;SDS011;17637;51.984;21.208;2023-11-21T04:27:50;59.28;;;29.63;;
30948;SDS011;17637;51.984;21.208;2023-11-21T04:30:21;58.80;;;30.38;;
30948;SDS011;17637;51.984;21.208;2023-11-21T04:32:53;53.42;;;26.75;;
30948;SDS011;17637;51.984;21.208;2023-11-21T04:35:25;52.75;;;26.58;;
30948;SDS011;17637;51.984;21.208;2023-11-21T04:37:57;38.13;;;24.20;;
30948;SDS011;17637;51.984;21.208;2023-11-21T04:40:29;36.92;;;23.08;;
30948;SDS011;17637;51.984;21.208;2023-11-21T04:43:01;35.88;;;22.60;;
30948;SDS011;17637;51.984;21.208;2023-11-21T04:45:33;35.35;;;22.95;;
30948;SDS011;17637;51.984;21.208;2023-11-21T04:48:05;35.78;;;22.92;;
30948;SDS011;17637;51.984;21.208;2023-11-21T04:50:38;36.95;;;21.83;;
30948;SDS011;17637;51.984;21.208;2023-11-21T04:53:10;28.40;;;19.20;;
30948;SDS011;17637;51.984;21.208;2023-11-21T04:55:44;29.25;;;18.70;;
30948;SDS011;17637;51.984;21.208;2023-11-21T04:58:17;34.38;;;19.48;;
30948;SDS011;17637;51.984;21.208;2023-11-21T05:00:49;39.53;;;21.52;;
30948;SDS011;17637;51.984;21.208;2023-11-21T05:03:21;44.97;;;22.60;;
30948;SDS011;17637;51.984;21.208;2023-11-21T05:05:55;35.33;;;19.42;;
30948;SDS011;17637;51.984;21.208;2023-11-21T05:08:27;29.00;;;17.42;;
30948;SDS011;17637;51.984;21.208;2023-11-21T05:10:59;28.80;;;16.90;;
30948;SDS011;17637;51.984;21.208;2023-11-21T05:13:31;26.67;;;17.10;;
30948;SDS011;17637;51.984;21.208;2023-11-21T05:16:05;28.05;;;18.33;;
30948;SDS011;17637;51.984;21.208;2023-11-21T05:18:37;29.23;;;19.83;;
30948;SDS011;17637;51.984;21.208;2023-11-21T05:21:09;27.73;;;18.13;;
30948;SDS011;17637;51.984;21.208;2023-11-21T05:23:41;26.10;;;18.23;;
30948;SDS011;17637;51.984;21.208;2023-11-21T05:26:13;24.60;;;17.48;;
30948;SDS011;17637;51.984;21.208;2023-11-21T05:28:44;28.55;;;18.17;;
30948;SDS011;17637;51.984;21.208;2023-11-21T05:31:16;25.92;;;18.05;;
30948;SDS011;17637;51.984;21.208;2023-11-21T05:33:48;29.52;;;18.80;;
30948;SDS011;17637;51.984;21.208;2023-11-21T05:36:20;28.67;;;20.13;;
30948;SDS011;17637;51.984;21.208;2023-11-21T05:38:52;26.73;;;18.38;;
30948;SDS011;17637;51.984;21.208;2023-11-21T05:41:24;31.65;;;21.00;;
30948;SDS011;17637;51.984;21.208;2023-11-21T05:43:57;28.67;;;20.05;;
30948;SDS011;17637;51.984;21.208;2023-11-21T05:46:29;28.02;;;19.90;;
30948;SDS011;17637;51.984;21.208;2023-11-21T05:49:01;29.30;;;19.90;;
30948;SDS011;17637;51.984;21.208;2023-11-21T05:51:32;30.67;;;20.15;;
30948;SDS011;17637;51.984;21.208;2023-11-21T05:54:04;30.08;;;19.88;;
30948;SDS011;17637;51.984;21.208;2023-11-21T05:56:36;28.15;;;19.55;;
30948;SDS011;17637;51.984;21.208;2023-11-21T05:59:08;23.23;;;17.50;;
30948;SDS011;17637;51.984;21.208;2023-11-21T06:01:41;29.42;;;17.88;;
30948;SDS011;17637;51.984;21.208;2023-11-21T06:04:13;32.17;;;19.63;;
30948;SDS011;17637;51.984;21.208;2023-11-21T06:06:46;31.48;;;20.15;;
30948;SDS011;17637;51.984;21.208;2023-11-21T06:09:18;28.40;;;19.15;;
30948;SDS011;17637;51.984;21.208;2023-11-21T06:11:49;45.25;;;27.52;;
30948;SDS011;17637;51.984;21.208;2023-11-21T06:14:21;35.15;;;23.35;;
30948;SDS011;17637;51.984;21.208;2023-11-21T06:16:53;28.10;;;19.23;;
30948;SDS011;17637;51.984;21.208;2023-11-21T06:19:27;29.42;;;19.98;;
30948;SDS011;17637;51.984;21.208;2023-11-21T06:21:59;30.15;;;21.27;;
30948;SDS011;17637;51.984;21.208;2023-11-21T06:24:31;29.13;;;20.65;;
30948;SDS011;17637;51.984;21.208;2023-11-21T06:27:03;32.40;;;21.63;;
30948;SDS011;17637;51.984;21.208;2023-11-21T06:29:36;34.03;;;22.60;;
30948;SDS011;17637;51.984;21.208;2023-11-21T06:32:08;33.33;;;22.52;;
30948;SDS011;17637;51.984;21.208;2023-11-21T06:34:40;34.10;;;22.48;;
30948;SDS011;17637;51.984;21.208;2023-11-21T06:37:12;30.70;;;20.98;;
30948;SDS011;17637;51.984;21.208;2023-11-21T06:39:44;30.60;;;21.83;;
30948;SDS011;17637;51.984;21.208;2023-11-21T06:42:15;29.92;;;21.70;;
30948;SDS011;17637;51.984;21.208;2023-11-21T06:44:47;34.33;;;24.75;;
30948;SDS011;17637;51.984;21.208;2023-11-21T06:47:20;39.25;;;26.70;;
30948;SDS011;17637;51.984;21.208;2023-11-21T06:49:52;38.85;;;26.73;;
30948;SDS011;17637;51.984;21.208;2023-11-21T06:52:24;42.05;;;27.25;;
30948;SDS011;17637;51.984;21.208;2023-11-21T06:54:57;31.80;;;21.77;;
30948;SDS011;17637;51.984;21.208;2023-11-21T06:57:29;29.90;;;21.58;;
30948;SDS011;17637;51.984;21.208;2023-11-21T07:00:01;33.83;;;22.77;;
30948;SDS011;17637;51.984;21.208;2023-11-21T07:02:34;32.45;;;22.95;;
30948;SDS011;17637;51.984;21.208;2023-11-21T07:05:06;29.98;;;21.35;;
30948;SDS011;17637;51.984;21.208;2023-11-21T07:07:38;24.92;;;18.10;;
30948;SDS011;17637;51.984;21.208;2023-11-21T07:10:10;29.63;;;20.77;;
30948;SDS011;17637;51.984;21.208;2023-11-21T07:12:42;28.83;;;20.65;;
30948;SDS011;17637;51.984;21.208;2023-11-21T07:15:14;25.65;;;19.40;;
30948;SDS011;17637;51.984;21.208;2023-11-21T07:17:46;31.60;;;21.75;;
30948;SDS011;17637;51.984;21.208;2023-11-21T07:20:20;31.25;;;21.83;;
30948;SDS011;17637;51.984;21.208;2023-11-21T07:22:52;30.58;;;20.70;;
30948;SDS011;17637;51.984;21.208;2023-11-21T07:25:24;30.42;;;19.52;;
30948;SDS011;17637;51.984;21.208;2023-11-21T07:27:57;25.30;;;19.25;;
30948;SDS011;17637;51.984;21.208;2023-11-21T07:30:28;30.50;;;20.42;;
30948;SDS011;17637;51.984;21.208;2023-11-21T07:33:00;25.67;;;19.45;;
30948;SDS011;17637;51.984;21.208;2023-11-21T07:35:32;24.15;;;18.48;;
30948;SDS011;17637;51.984;21.208;2023-11-21T07:38:04;27.65;;;19.80;;
30948;SDS011;17637;51.984;21.208;2023-11-21T07:40:36;29.05;;;19.80;;
30948;SDS011;17637;51.984;21.208;2023-11-21T07:43:08;29.10;;;19.30;;
30948;SDS011;17637;51.984;21.208;2023-11-21T07:45:40;32.10;;;22.52;;
30948;SDS011;17637;51.984;21.208;2023-11-21T07:48:17;36.40;;;24.38;;
30948;SDS011;17637;51.984;21.208;2023-11-21T07:50:48;36.28;;;23.65;;
30948;SDS011;17637;51.984;21.208;2023-11-21T07:53:20;35.58;;;22.77;;
30948;SDS011;17637;51.984;21.208;2023-11-21T07:55:53;39.38;;;24.90;;
30948;SDS011;17637;51.984;21.208;2023-11-21T07:58:25;26.92;;;19.95;;
30948;SDS011;17637;51.984;21.208;2023-11-21T08:00:57;24.70;;;19.15;;
30948;SDS011;17637;51.984;21.208;2023-11-21T08:03:29;25.95;;;19.92;;
30948;SDS011;17637;51.984;21.208;2023-11-21T08:06:02;28.67;;;19.77;;
30948;SDS011;17637;51.984;21.208;2023-11-21T08:08:37;24.23;;;17.73;;
30948;SDS011;17637;51.984;21.208;2023-11-21T08:11:09;25.27;;;18.13;;
30948;SDS011;17637;51.984;21.208;2023-11-21T08:13:41;28.35;;;19.42;;
30948;SDS011;17637;51.984;21.208;2023-11-21T08:16:13;23.30;;;17.35;;
30948;SDS011;17637;51.984;21.208;2023-11-21T08:18:46;26.00;;;19.17;;
30948;SDS011;17637;51.984;21.208;2023-11-21T08:21:18;27.02;;;19.58;;
30948;SDS011;17637;51.984;21.208;2023-11-21T08:23:50;26.38;;;19.42;;
30948;SDS011;17637;51.984;21.208;2023-11-21T08:26:25;25.25;;;18.17;;
30948;SDS011;17637;51.984;21.208;2023-11-21T08:28:57;24.08;;;18.30;;
30948;SDS011;17637;51.984;21.208;2023-11-21T08:31:30;28.77;;;19.48;;
30948;SDS011;17637;51.984;21.208;2023-11-21T08:34:01;29.05;;;21.52;;
30948;SDS011;17637;51.984;21.208;2023-11-21T08:36:34;29.15;;;20.00;;
30948;SDS011;17637;51.984;21.208;2023-11-21T08:39:06;28.30;;;20.63;;
30948;SDS011;17637;51.984;21.208;2023-11-21T08:41:38;32.90;;;21.10;;
30948;SDS011;17637;51.984;21.208;2023-11-21T08:44:10;31.00;;;22.58;;
30948;SDS011;17637;51.984;21.208;2023-11-21T08:46:42;32.92;;;23.92;;
30948;SDS011;17637;51.984;21.208;2023-11-21T08:49:15;35.60;;;24.52;;
30948;SDS011;17637;51.984;21.208;2023-11-21T08:51:47;37.20;;;24.90;;
30948;SDS011;17637;51.984;21.208;2023-11-21T08:54:19;34.80;;;25.13;;
30948;SDS011;17637;51.984;21.208;2023-11-21T08:56:51;46.72;;;30.95;;
30948;SDS011;17637;51.984;21.208;2023-11-21T08:59:24;40.38;;;27.85;;
30948;SDS011;17637;51.984;21.208;2023-11-21T09:01:56;43.05;;;29.27;;
30948;SDS011;17637;51.984;21.208;2023-11-21T09:04:28;41.78;;;27.23;;
30948;SDS011;17637;51.984;21.208;2023-11-21T09:07:00;35.55;;;25.02;;
30948;SDS011;17637;51.984;21.208;2023-11-21T09:09:32;38.70;;;26.65;;
30948;SDS011;17637;51.984;21.208;2023-11-21T09:12:04;35.45;;;23.88;;
30948;SDS011;17637;51.984;21.208;2023-11-21T09:14:37;36.15;;;24.13;;
30948;SDS011;17637;51.984;21.208;2023-11-21T09:17:09;35.78;;;23.25;;
30948;SDS011;17637;51.984;21.208;2023-11-21T09:19:44;35.03;;;23.88;;
30948;SDS011;17637;51.984;21.208;2023-11-21T09:22:18;32.72;;;22.60;;
30948;SDS011;17637;51.984;21.208;2023-11-21T09:24:51;34.15;;;22.13;;
30948;SDS011;17637;51.984;21.208;2023-11-21T09:27:23;31.70;;;22.48;;
30948;SDS011;17637;51.984;21.208;2023-11-21T09:29:57;33.40;;;23.20;;
30948;SDS011;17637;51.984;21.208;2023-11-21T09:32:29;37.55;;;24.65;;
30948;SDS011;17637;51.984;21.208;2023-11-21T09:35:01;36.08;;;24.20;;
30948;SDS011;17637;51.984;21.208;2023-11-21T09:37:34;35.95;;;25.58;;
30948;SDS011;17637;51.984;21.208;2023-11-21T09:40:10;29.90;;;22.50;;
30948;SDS011;17637;51.984;21.208;2023-11-21T09:42:55;31.75;;;22.33;;
30948;SDS011;17637;51.984;21.208;2023-11-21T09:45:32;30.00;;;21.60;;
30948;SDS011;17637;51.984;21.208;2023-11-21T09:48:06;33.47;;;24.92;;
30948;SDS011;17637;51.984;21.208;2023-11-21T09:50:41;30.95;;;21.40;;
30948;SDS011;17637;51.984;21.208;2023-11-21T09:53:18;30.95;;;21.08;;
30948;SDS011;17637;51.984;21.208;2023-11-21T09:55:53;24.88;;;18.75;;
30948;SDS011;17637;51.984;21.208;2023-11-21T09:58:26;29.08;;;19.58;;
30948;SDS011;17637;51.984;21.208;2023-11-21T10:00:58;28.13;;;20.23;;
30948;SDS011;17637;51.984;21.208;2023-11-21T10:03:31;29.25;;;21.00;;
30948;SDS011;17637;51.984;21.208;2023-11-21T10:06:06;25.40;;;18.77;;
30948;SDS011;17637;51.984;21.208;2023-11-21T10:08:40;27.08;;;20.40;;
30948;SDS011;17637;51.984;21.208;2023-11-21T10:11:24;28.20;;;21.02;;
30948;SDS011;17637;51.984;21.208;2023-11-21T10:13:57;27.52;;;19.95;;
30948;SDS011;17637;51.984;21.208;2023-11-21T10:16:31;26.33;;;18.73;;
30948;SDS011;17637;51.984;21.208;2023-11-21T10:19:03;27.20;;;18.67;;
30948;SDS011;17637;51.984;21.208;2023-11-21T10:21:42;30.02;;;20.63;;
30948;SDS011;17637;51.984;21.208;2023-11-21T10:24:14;24.45;;;18.27;;
30948;SDS011;17637;51.984;21.208;2023-11-21T10:26:46;28.48;;;20.70;;
30948;SDS011;17637;51.984;21.208;2023-11-21T10:29:24;28.52;;;19.23;;
30948;SDS011;17637;51.984;21.208;2023-11-21T10:31:58;25.83;;;19.63;;
30948;SDS011;17637;51.984;21.208;2023-11-21T10:34:31;26.70;;;18.95;;
30948;SDS011;17637;51.984;21.208;2023-11-21T10:37:12;22.48;;;17.08;;
30948;SDS011;17637;51.984;21.208;2023-11-21T10:39:44;24.13;;;18.45;;
30948;SDS011;17637;51.984;21.208;2023-11-21T10:42:17;24.85;;;17.80;;
30948;SDS011;17637;51.984;21.208;2023-11-21T10:44:52;25.65;;;19.48;;
30948;SDS011;17637;51.984;21.208;2023-11-21T10:47:25;26.17;;;18.73;;
30948;SDS011;17637;51.984;21.208;2023-11-21T10:49:57;29.27;;;20.50;;
30948;SDS011;17637;51.984;21.208;2023-11-21T10:52:32;28.75;;;21.15;;
30948;SDS011;17637;51.984;21.208;2023-11-21T10:55:17;28.42;;;19.92;;
30948;SDS011;17637;51.984;21.208;2023-11-21T10:57:53;26.95;;;20.02;;
30948;SDS011;17637;51.984;21.208;2023-11-21T11:00:27;25.63;;;19.77;;
30948;SDS011;17637;51.984;21.208;2023-11-21T11:03:00;29.98;;;21.25;;
30948;SDS011;17637;51.984;21.208;2023-11-21T11:05:32;27.00;;;19.92;;
30948;SDS011;17637;51.984;21.208;2023-11-21T11:08:05;25.45;;;18.45;;
30948;SDS011;17637;51.984;21.208;2023-11-21T11:10:40;26.05;;;19.90;;
30948;SDS011;17637;51.984;21.208;2023-11-21T11:13:12;23.27;;;17.67;;
30948;SDS011;17637;51.984;21.208;2023-11-21T11:15:47;26.55;;;19.42;;
30948;SDS011;17637;51.984;21.208;2023-11-21T11:18:19;28.83;;;19.63;;
30948;SDS011;17637;51.984;21.208;2023-11-21T11:20:52;29.33;;;20.52;;
30948;SDS011;17637;51.984;21.208;2023-11-21T11:23:39;28.38;;;20.83;;
30948;SDS011;17637;51.984;21.208;2023-11-21T11:26:39;27.58;;;19.60;;
30948;SDS011;17637;51.984;21.208;2023-11-21T11:29:29;27.77;;;19.85;;
30948;SDS011;17637;51.984;21.208;2023-11-21T11:38:02;28.63;;;19.15;;
30948;SDS011;17637;51.984;21.208;2023-11-21T11:40:41;33.95;;;25.17;;
30948;SDS011;17637;51.984;21.208;2023-11-21T11:43:24;29.85;;;21.75;;
30948;SDS011;17637;51.984;21.208;2023-11-21T11:46:02;30.13;;;21.90;;
30948;SDS011;17637;51.984;21.208;2023-11-21T11:48:38;29.58;;;20.83;;
30948;SDS011;17637;51.984;21.208;2023-11-21T11:51:12;29.05;;;20.23;;
30948;SDS011;17637;51.984;21.208;2023-11-21T11:53:46;33.20;;;21.98;;
30948;SDS011;17637;51.984;21.208;2023-11-21T11:56:20;30.52;;;21.65;;
30948;SDS011;17637;51.984;21.208;2023-11-21T11:58:55;33.72;;;23.42;;
30948;SDS011;17637;51.984;21.208;2023-11-21T12:01:28;37.05;;;25.45;;
30948;SDS011;17637;51.984;21.208;2023-11-21T12:07:03;33.72;;;24.08;;
30948;SDS011;17637;51.984;21.208;2023-11-21T12:09:36;33.30;;;24.15;;
30948;SDS011;17637;51.984;21.208;2023-11-21T12:12:08;34.65;;;24.90;;
30948;SDS011;17637;51.984;21.208;2023-11-21T12:14:40;36.30;;;24.70;;
30948;SDS011;17637;51.984;21.208;2023-11-21T12:17:12;37.85;;;26.00;;
30948;SDS011;17637;51.984;21.208;2023-11-21T12:19:45;39.42;;;26.40;;
30948;SDS011;17637;51.984;21.208;2023-11-21T12:22:18;35.85;;;25.38;;
30948;SDS011;17637;51.984;21.208;2023-11-21T12:24:50;41.42;;;27.25;;
30948;SDS011;17637;51.984;21.208;2023-11-21T12:27:22;39.35;;;26.73;;
30948;SDS011;17637;51.984;21.208;2023-11-21T12:29:54;41.05;;;27.40;;
30948;SDS011;17637;51.984;21.208;2023-11-21T12:32:28;41.78;;;27.05;;
30948;SDS011;17637;51.984;21.208;2023-11-21T12:35:00;37.17;;;25.23;;
30948;SDS011;17637;51.984;21.208;2023-11-21T12:37:34;39.72;;;26.20;;
30948;SDS011;17637;51.984;21.208;2023-11-21T12:40:06;38.92;;;25.40;;
30948;SDS011;17637;51.984;21.208;2023-11-21T12:42:47;33.78;;;24.55;;
30948;SDS011;17637;51.984;21.208;2023-11-21T12:45:21;28.75;;;21.55;;
30948;SDS011;17637;51.984;21.208;2023-11-21T12:47:55;38.47;;;25.40;;
30948;SDS011;17637;51.984;21.208;2023-11-21T12:50:28;34.00;;;23.63;;
30948;SDS011;17637;51.984;21.208;2023-11-21T12:53:06;35.47;;;23.98;;
30948;SDS011;17637;51.984;21.208;2023-11-21T12:55:48;34.55;;;23.35;;
30948;SDS011;17637;51.984;21.208;2023-11-21T12:58:23;36.67;;;24.33;;
30948;SDS011;17637;51.984;21.208;2023-11-21T13:00:56;34.25;;;22.45;;
30948;SDS011;17637;51.984;21.208;2023-11-21T13:03:30;33.88;;;22.55;;
30948;SDS011;17637;51.984;21.208;2023-11-21T13:06:04;31.05;;;22.92;;
30948;SDS011;17637;51.984;21.208;2023-11-21T13:08:36;35.00;;;24.70;;
30948;SDS011;17637;51.984;21.208;2023-11-21T13:11:10;33.60;;;24.38;;
30948;SDS011;17637;51.984;21.208;2023-11-21T13:13:43;30.33;;;21.63;;
30948;SDS011;17637;51.984;21.208;2023-11-21T13:16:15;27.90;;;20.15;;
30948;SDS011;17637;51.984;21.208;2023-11-21T13:18:47;32.28;;;23.02;;
30948;SDS011;17637;51.984;21.208;2023-11-21T13:21:19;33.78;;;24.25;;
30948;SDS011;17637;51.984;21.208;2023-11-21T13:23:50;31.20;;;23.08;;
30948;SDS011;17637;51.984;21.208;2023-11-21T13:26:24;35.45;;;25.45;;
30948;SDS011;17637;51.984;21.208;2023-11-21T13:28:57;35.38;;;24.33;;
30948;SDS011;17637;51.984;21.208;2023-11-21T13:31:30;36.25;;;26.10;;
30948;SDS011;17637;51.984;21.208;2023-11-21T13:34:04;36.60;;;24.17;;
30948;SDS011;17637;51.984;21.208;2023-11-21T13:36:37;35.67;;;24.17;;
30948;SDS011;17637;51.984;21.208;2023-11-21T13:39:08;35.97;;;25.20;;
30948;SDS011;17637;51.984;21.208;2023-11-21T13:41:47;33.20;;;23.35;;
30948;SDS011;17637;51.984;21.208;2023-11-21T13:44:26;39.25;;;26.60;;
30948;SDS011;17637;51.984;21.208;2023-11-21T13:47:00;43.63;;;30.25;;
30948;SDS011;17637;51.984;21.208;2023-11-21T13:49:32;45.83;;;32.70;;
30948;SDS011;17637;51.984;21.208;2023-11-21T13:52:12;74.00;;;58.97;;
30948;SDS011;17637;51.984;21.208;2023-11-21T13:54:47;36.78;;;26.10;;
30948;SDS011;17637;51.984;21.208;2023-11-21T13:57:19;32.78;;;23.20;;
30948;SDS011;17637;51.984;21.208;2023-11-21T13:59:52;61.70;;;45.45;;
30948;SDS011;17637;51.984;21.208;2023-11-21T14:02:24;34.65;;;23.60;;
30948;SDS011;17637;51.984;21.208;2023-11-21T14:05:04;31.90;;;23.35;;
30948;SDS011;17637;51.984;21.208;2023-11-21T14:07:41;35.72;;;24.75;;
30948;SDS011;17637;51.984;21.208;2023-11-21T14:10:19;35.38;;;24.05;;
30948;SDS011;17637;51.984;21.208;2023-11-21T14:12:54;33.45;;;21.77;;
30948;SDS011;17637;51.984;21.208;2023-11-21T14:15:27;35.50;;;24.02;;
30948;SDS011;17637;51.984;21.208;2023-11-21T14:18:02;36.55;;;22.80;;
30948;SDS011;17637;51.984;21.208;2023-11-21T14:20:39;37.60;;;26.42;;
30948;SDS011;17637;51.984;21.208;2023-11-21T14:23:12;34.47;;;24.55;;
30948;SDS011;17637;51.984;21.208;2023-11-21T14:25:44;36.72;;;24.50;;
30948;SDS011;17637;51.984;21.208;2023-11-21T14:28:16;38.63;;;25.92;;
30948;SDS011;17637;51.984;21.208;2023-11-21T14:30:48;36.65;;;25.20;;
30948;SDS011;17637;51.984;21.208;2023-11-21T14:33:20;36.30;;;25.60;;
30948;SDS011;17637;51.984;21.208;2023-11-21T14:35:51;35.85;;;25.35;;
30948;SDS011;17637;51.984;21.208;2023-11-21T14:38:23;38.38;;;23.88;;
30948;SDS011;17637;51.984;21.208;2023-11-21T14:40:55;36.15;;;24.20;;
30948;SDS011;17637;51.984;21.208;2023-11-21T14:43:28;37.88;;;25.83;;
30948;SDS011;17637;51.984;21.208;2023-11-21T14:46:01;34.08;;;25.13;;
30948;SDS011;17637;51.984;21.208;2023-11-21T14:48:35;37.58;;;25.65;;
30948;SDS011;17637;51.984;21.208;2023-11-21T14:51:14;37.78;;;25.27;;